createdAt,value
2018-02-16T00:01:21.810Z,87.91
2018-02-16T00:07:26.336Z,88.47
2018-02-16T00:13:30.862Z,88.64
2018-02-16T00:19:35.402Z,87.97
2018-02-16T00:25:40.718Z,88.98
2018-02-16T00:31:45.253Z,88.80
2018-02-16T00:37:49.827Z,87.83
2018-02-16T00:43:54.746Z,87.60
2018-02-16T00:50:00.148Z,87.45
2018-02-16T00:56:04.659Z,87.76
2018-02-16T01:02:09.254Z,88.68
2018-02-16T01:08:13.725Z,87.96
2018-02-16T01:14:18.227Z,87.99
2018-02-16T01:20:23.022Z,87.88
2018-02-16T01:26:28.271Z,88.28
2018-02-16T01:32:32.911Z,88.05
2018-02-16T01:38:37.509Z,87.69
2018-02-16T01:44:42.631Z,88.38
2018-02-16T01:50:47.114Z,89.27
2018-02-16T01:56:51.888Z,88.62
2018-02-16T02:02:56.460Z,87.97
2018-02-16T02:09:00.974Z,87.81
2018-02-16T02:15:05.648Z,87.85
2018-02-16T02:21:10.123Z,87.33
2018-02-16T02:27:14.618Z,88.92
2018-02-16T02:33:19.511Z,88.40
2018-02-16T02:39:24.433Z,88.06
2018-02-16T02:45:29.043Z,88.41
2018-02-16T02:51:33.514Z,88.65
2018-02-16T02:57:38.055Z,89.04
2018-02-16T03:03:42.630Z,88.62
2018-02-16T03:09:47.116Z,87.68
2018-02-16T03:15:52.235Z,88.18
2018-02-16T03:21:56.925Z,88.35
2018-02-16T03:28:02.268Z,88.87
2018-02-16T03:34:07.604Z,89.28
2018-02-16T03:40:12.184Z,88.41
2018-02-16T03:46:16.739Z,88.18
2018-02-16T03:52:22.781Z,87.69
2018-02-16T03:58:27.397Z,88.27
2018-02-16T04:04:31.927Z,88.67
2018-02-16T04:10:36.476Z,90.22
2018-02-16T04:16:41.148Z,90.91
2018-02-16T04:22:46.160Z,91.00
2018-02-16T04:28:51.489Z,90.37
2018-02-16T04:34:56.276Z,89.38
2018-02-16T04:41:00.845Z,89.36
2018-02-16T04:47:05.406Z,90.09
2018-02-16T04:53:09.991Z,89.63
2018-02-16T04:59:14.462Z,89.15
2018-02-16T05:05:19.081Z,89.23
2018-02-16T05:11:24.404Z,89.20
2018-02-16T05:17:28.878Z,88.95
2018-02-16T05:23:34.345Z,88.67
2018-02-16T05:29:38.864Z,88.87
2018-02-16T05:35:43.505Z,89.00
2018-02-16T05:41:48.087Z,88.70
2018-02-16T05:47:53.958Z,88.87
2018-02-16T05:53:58.634Z,88.68
2018-02-16T06:00:03.892Z,88.85
2018-02-16T06:06:08.385Z,88.83
2018-02-16T06:12:12.935Z,89.55
2018-02-16T06:18:17.429Z,88.85
2018-02-16T06:24:22.564Z,88.54
2018-02-16T06:30:27.078Z,88.22
2018-02-16T06:36:31.652Z,88.15
2018-02-16T06:42:36.176Z,88.38
2018-02-16T06:48:41.871Z,88.49
2018-02-16T06:54:46.383Z,88.49
2018-02-16T07:00:51.301Z,88.36
2018-02-16T07:06:56.646Z,87.94
2018-02-16T07:13:01.891Z,88.16
2018-02-16T07:19:06.463Z,88.43
2018-02-16T07:25:11.167Z,88.95
2018-02-16T07:31:16.877Z,89.15
2018-02-16T07:37:21.505Z,89.58
2018-02-16T07:43:26.751Z,89.33
2018-02-16T07:49:31.240Z,88.93
2018-02-16T07:55:35.767Z,88.81
2018-02-16T08:01:40.234Z,88.14
2018-02-16T08:07:44.742Z,87.99
2018-02-16T08:13:49.354Z,88.01
2018-02-16T08:19:54.486Z,87.60
2018-02-16T08:25:59.150Z,87.12
2018-02-16T08:32:04.391Z,86.51
2018-02-16T08:38:09.797Z,85.58
2018-02-16T08:44:14.273Z,84.95
2018-02-16T08:50:18.822Z,84.91
2018-02-16T08:56:23.752Z,83.27
2018-02-16T09:02:28.252Z,81.65
2018-02-16T09:08:32.750Z,81.29
2018-02-16T09:14:37.995Z,81.46
2018-02-16T09:20:42.710Z,80.57
2018-02-16T09:26:48.030Z,79.95
2018-02-16T09:32:53.216Z,80.22
2018-02-16T09:39:00.093Z,78.96
2018-02-16T09:45:04.811Z,78.69
2018-02-16T09:51:09.335Z,77.90
2018-02-16T09:57:13.857Z,78.43
2018-02-16T10:03:18.336Z,78.87
2018-02-16T10:09:22.846Z,78.97
2018-02-16T10:15:27.349Z,79.30
2018-02-16T10:21:31.815Z,79.76
2018-02-16T10:27:36.391Z,80.02
2018-02-16T10:33:42.501Z,78.45
2018-02-16T10:39:47.009Z,77.06
2018-02-16T10:45:52.681Z,77.10
2018-02-16T10:51:57.931Z,77.11
2018-02-16T10:58:02.462Z,76.55
2018-02-16T11:04:07.029Z,75.93
2018-02-16T11:10:12.288Z,76.09
2018-02-16T11:16:16.813Z,75.20
2018-02-16T11:22:22.093Z,75.30
2018-02-16T11:28:26.558Z,74.21
2018-02-16T11:34:31.035Z,74.64
2018-02-16T11:40:36.297Z,75.39
2018-02-16T11:46:40.766Z,74.39
2018-02-16T11:52:45.240Z,73.97
2018-02-16T11:58:49.810Z,72.90
2018-02-16T12:04:55.131Z,72.06
2018-02-16T12:10:59.790Z,70.89
2018-02-16T12:17:04.309Z,70.38
2018-02-16T12:23:08.785Z,69.10
2018-02-16T12:29:13.408Z,68.78
2018-02-16T12:35:18.027Z,67.86
2018-02-16T12:41:22.531Z,67.74
2018-02-16T12:47:27.808Z,65.26
2018-02-16T12:53:32.297Z,65.83
2018-02-16T12:59:36.769Z,63.86
2018-02-16T13:05:41.259Z,62.45
2018-02-16T13:11:45.817Z,62.12
2018-02-16T13:17:50.820Z,61.10
2018-02-16T13:23:55.329Z,59.04
2018-02-16T13:29:59.849Z,58.26
2018-02-16T13:36:04.340Z,58.66
2018-02-16T13:42:08.848Z,61.46
2018-02-16T13:48:14.114Z,62.74
2018-02-16T13:54:19.642Z,63.53
2018-02-16T14:00:24.262Z,63.47
2018-02-16T14:06:28.766Z,63.41
2018-02-16T14:12:33.336Z,61.54
2018-02-16T14:18:37.833Z,60.86
2018-02-16T14:24:42.351Z,60.27
2018-02-16T14:30:47.690Z,61.00
2018-02-16T14:36:52.553Z,61.13
2018-02-16T14:42:57.017Z,61.74
2018-02-16T14:49:02.258Z,61.50
2018-02-16T14:55:06.753Z,61.88
2018-02-16T15:01:11.230Z,63.31
2018-02-16T15:07:15.730Z,62.63
2018-02-16T15:13:20.694Z,61.70
2018-02-16T15:19:25.173Z,61.85
2018-02-16T15:25:30.442Z,62.98
2018-02-16T15:31:34.936Z,64.22
2018-02-16T15:43:42.958Z,66.44
2018-02-16T15:49:48.310Z,66.51
2018-02-16T15:55:52.780Z,65.75
2018-02-16T16:01:58.084Z,66.22
2018-02-16T16:08:02.854Z,67.17
2018-02-16T16:14:08.153Z,67.46
2018-02-16T16:20:13.415Z,67.98
2018-02-16T16:26:18.023Z,68.03
2018-02-16T16:32:23.822Z,68.15
2018-02-16T16:38:28.367Z,68.43
2018-02-16T16:44:32.840Z,69.16
2018-02-16T16:50:37.360Z,69.13
2018-02-16T16:56:41.783Z,69.90
2018-02-16T17:02:46.253Z,69.98
2018-02-16T17:08:51.509Z,69.64
2018-02-16T17:14:56.175Z,69.79
2018-02-16T17:21:00.660Z,69.19
2018-02-16T17:27:05.251Z,67.94
2018-02-16T17:33:09.850Z,67.65
2018-02-16T17:39:14.341Z,67.22
2018-02-16T17:45:18.820Z,66.61
2018-02-16T17:51:23.365Z,65.31
2018-02-16T17:57:28.632Z,65.88
2018-02-16T18:03:33.106Z,66.09
2018-02-16T18:09:37.637Z,68.16
2018-02-16T18:15:42.134Z,69.33
2018-02-16T18:21:46.618Z,70.46
2018-02-16T18:27:51.320Z,71.28
2018-02-16T18:33:55.804Z,72.00
2018-02-16T18:40:00.244Z,73.01
2018-02-16T18:46:04.725Z,72.90
2018-02-16T18:52:09.186Z,73.21
2018-02-16T18:58:13.651Z,73.90
2018-02-16T19:04:19.320Z,73.82
2018-02-16T19:10:23.816Z,74.30
2018-02-16T19:16:28.487Z,74.02
2018-02-16T19:22:33.841Z,74.61
2018-02-16T19:28:38.395Z,74.62
2018-02-16T19:34:43.107Z,74.65
2018-02-16T19:40:48.100Z,74.68
2018-02-16T19:46:52.826Z,74.78
2018-02-16T19:52:57.310Z,75.02
2018-02-16T19:59:02.542Z,75.45
2018-02-16T20:05:07.025Z,75.60
2018-02-16T20:11:11.506Z,75.93
2018-02-16T20:17:16.106Z,75.87
2018-02-16T20:23:21.729Z,76.41
2018-02-16T20:29:26.333Z,77.09
2018-02-16T20:35:31.569Z,78.05
2018-02-16T20:41:36.178Z,78.63
2018-02-16T20:47:40.678Z,78.39
2018-02-16T20:53:45.953Z,78.57
2018-02-16T20:59:51.661Z,79.21
2018-02-16T21:05:56.210Z,79.11
2018-02-16T21:12:00.682Z,79.27
2018-02-16T21:18:05.174Z,79.66
2018-02-16T21:24:09.651Z,79.96
2018-02-16T21:30:14.136Z,79.76
2018-02-16T21:36:18.602Z,79.48
2018-02-16T21:42:23.135Z,79.16
2018-02-16T21:48:27.796Z,79.84
2018-02-16T21:54:32.273Z,79.81
2018-02-16T22:00:37.721Z,79.72
2018-02-16T22:06:43.096Z,79.43
2018-02-16T22:12:47.614Z,78.86
2018-02-16T22:18:53.382Z,79.47
2018-02-16T22:24:57.872Z,80.30
2018-02-16T22:31:02.398Z,80.21
2018-02-16T22:37:06.990Z,79.65
2018-02-16T22:43:12.314Z,79.88
2018-02-16T22:49:16.894Z,79.93
2018-02-16T22:55:22.633Z,79.77
2018-02-16T23:01:27.308Z,79.49
2018-02-16T23:07:31.882Z,81.25
2018-02-16T23:13:36.804Z,80.47
2018-02-16T23:19:41.299Z,80.52
2018-02-16T23:25:46.573Z,79.90
2018-02-16T23:31:51.974Z,79.79
2018-02-16T23:37:56.474Z,79.67
2018-02-16T23:44:01.711Z,79.60
2018-02-16T23:50:06.256Z,80.51
2018-02-16T23:56:10.946Z,81.59
